sensor_id;sensor_type;location;lat;lon;timestamp;temperature;humidity
9941;DHT22;5009;50.656;7.188;2022-11-20T03:13:41;4.30;99.90
9941;DHT22;5009;50.656;7.188;2022-11-20T03:16:13;4.30;99.90
9941;DHT22;5009;50.656;7.188;2022-11-20T03:18:40;4.40;99.90
9941;DHT22;5009;50.656;7.188;2022-11-20T03:21:06;4.40;99.90
9941;DHT22;5009;50.656;7.188;2022-11-20T03:23:32;4.50;99.90
9941;DHT22;5009;50.656;7.188;2022-11-20T03:28:34;4.50;99.90
9941;DHT22;5009;50.656;7.188;2022-11-20T03:31:08;4.60;99.90
9941;DHT22;5009;50.656;7.188;2022-11-20T03:33:34;4.60;99.90
9941;DHT22;5009;50.656;7.188;2022-11-20T03:36:05;4.60;99.90
9941;DHT22;5009;50.656;7.188;2022-11-20T03:38:31;4.60;99.90
9941;DHT22;5009;50.656;7.188;2022-11-20T03:41:01;4.60;99.90
9941;DHT22;5009;50.656;7.188;2022-11-20T03:43:27;4.60;99.90
9941;DHT22;5009;50.656;7.188;2022-11-20T03:45:53;4.60;99.90
9941;DHT22;5009;50.656;7.188;2022-11-20T03:48:18;4.60;99.90
9941;DHT22;5009;50.656;7.188;2022-11-20T03:50:44;4.60;99.90
9941;DHT22;5009;50.656;7.188;2022-11-20T03:53:13;4.70;99.90
9941;DHT22;5009;50.656;7.188;2022-11-20T03:55:39;4.70;99.90
9941;DHT22;5009;50.656;7.188;2022-11-20T03:58:04;4.70;99.90
9941;DHT22;5009;50.656;7.188;2022-11-20T04:00:30;4.70;99.90
9941;DHT22;5009;50.656;7.188;2022-11-20T04:02:59;4.70;99.90
9941;DHT22;5009;50.656;7.188;2022-11-20T04:05:25;4.70;99.90
9941;DHT22;5009;50.656;7.188;2022-11-20T04:07:51;4.60;99.90
9941;DHT22;5009;50.656;7.188;2022-11-20T04:10:16;4.50;99.90
9941;DHT22;5009;50.656;7.188;2022-11-20T04:12:42;4.50;99.90
9941;DHT22;5009;50.656;7.188;2022-11-20T04:15:08;4.50;99.90
9941;DHT22;5009;50.656;7.188;2022-11-20T04:17:34;4.60;99.90
9941;DHT22;5009;50.656;7.188;2022-11-20T04:19:59;4.60;99.90
9941;DHT22;5009;50.656;7.188;2022-11-20T04:22:25;4.70;99.90
9941;DHT22;5009;50.656;7.188;2022-11-20T04:24:50;4.70;99.90
9941;DHT22;5009;50.656;7.188;2022-11-20T04:27:16;4.60;99.90
9941;DHT22;5009;50.656;7.188;2022-11-20T04:29:41;4.60;99.90
9941;DHT22;5009;50.656;7.188;2022-11-20T04:32:07;4.50;99.90
9941;DHT22;5009;50.656;7.188;2022-11-20T04:34:32;4.50;99.90
9941;DHT22;5009;50.656;7.188;2022-11-20T04:36:58;4.50;99.90
9941;DHT22;5009;50.656;7.188;2022-11-20T04:39:24;4.50;99.90
9941;DHT22;5009;50.656;7.188;2022-11-20T04:41:49;4.40;99.90
9941;DHT22;5009;50.656;7.188;2022-11-20T04:44:35;4.40;99.90
9941;DHT22;5009;50.656;7.188;2022-11-20T04:47:01;4.50;99.90
9941;DHT22;5009;50.656;7.188;2022-11-20T04:49:26;4.50;99.90
9941;DHT22;5009;50.656;7.188;2022-11-20T04:51:55;4.50;99.90
9941;DHT22;5009;50.656;7.188;2022-11-20T04:54:20;4.50;99.90
9941;DHT22;5009;50.656;7.188;2022-11-20T04:56:49;4.60;99.90
9941;DHT22;5009;50.656;7.188;2022-11-20T04:59:15;4.60;99.90
9941;DHT22;5009;50.656;7.188;2022-11-20T05:01:41;4.70;99.90
9941;DHT22;5009;50.656;7.188;2022-11-20T05:04:06;4.60;99.90
9941;DHT22;5009;50.656;7.188;2022-11-20T05:06:32;4.60;99.90
9941;DHT22;5009;50.656;7.188;2022-11-20T05:08:58;4.60;99.90
9941;DHT22;5009;50.656;7.188;2022-11-20T05:11:24;4.60;99.90
9941;DHT22;5009;50.656;7.188;2022-11-20T05:13:50;4.60;99.90
9941;DHT22;5009;50.656;7.188;2022-11-20T05:16:22;4.60;99.90
9941;DHT22;5009;50.656;7.188;2022-11-20T05:18:48;4.60;99.90
9941;DHT22;5009;50.656;7.188;2022-11-20T05:21:15;4.70;99.90
9941;DHT22;5009;50.656;7.188;2022-11-20T05:23:40;4.70;99.90
9941;DHT22;5009;50.656;7.188;2022-11-20T05:26:11;4.80;99.90
9941;DHT22;5009;50.656;7.188;2022-11-20T05:28:37;4.80;99.90
9941;DHT22;5009;50.656;7.188;2022-11-20T05:31:11;4.80;99.90
9941;DHT22;5009;50.656;7.188;2022-11-20T05:33:39;4.80;99.90
9941;DHT22;5009;50.656;7.188;2022-11-20T05:36:05;4.70;99.90
9941;DHT22;5009;50.656;7.188;2022-11-20T05:38:31;4.80;99.90
9941;DHT22;5009;50.656;7.188;2022-11-20T05:41:23;4.80;99.90
9941;DHT22;5009;50.656;7.188;2022-11-20T05:43:50;4.60;99.90
9941;DHT22;5009;50.656;7.188;2022-11-20T05:46:18;4.60;99.90
9941;DHT22;5009;50.656;7.188;2022-11-20T05:48:44;4.60;99.90
9941;DHT22;5009;50.656;7.188;2022-11-20T05:51:13;4.70;99.90
9941;DHT22;5009;50.656;7.188;2022-11-20T05:53:40;4.70;99.90
9941;DHT22;5009;50.656;7.188;2022-11-20T05:56:08;4.70;99.90
9941;DHT22;5009;50.656;7.188;2022-11-20T05:58:35;4.80;99.90
9941;DHT22;5009;50.656;7.188;2022-11-20T06:01:14;4.80;99.90
9941;DHT22;5009;50.656;7.188;2022-11-20T06:03:41;4.90;99.90
9941;DHT22;5009;50.656;7.188;2022-11-20T06:06:13;4.90;99.90
9941;DHT22;5009;50.656;7.188;2022-11-20T06:08:39;4.90;99.90
9941;DHT22;5009;50.656;7.188;2022-11-20T06:11:09;5.00;99.90
9941;DHT22;5009;50.656;7.188;2022-11-20T06:13:35;4.90;99.90
9941;DHT22;5009;50.656;7.188;2022-11-20T06:16:01;4.90;99.90
9941;DHT22;5009;50.656;7.188;2022-11-20T06:18:28;4.90;99.90
9941;DHT22;5009;50.656;7.188;2022-11-20T06:21:12;4.90;99.90
9941;DHT22;5009;50.656;7.188;2022-11-20T06:23:38;4.90;99.90
9941;DHT22;5009;50.656;7.188;2022-11-20T06:26:09;4.90;99.90
9941;DHT22;5009;50.656;7.188;2022-11-20T06:28:35;4.90;99.90
9941;DHT22;5009;50.656;7.188;2022-11-20T06:31:01;4.90;99.90
9941;DHT22;5009;50.656;7.188;2022-11-20T06:35:18;4.80;99.90
9941;DHT22;5009;50.656;7.188;2022-11-20T06:37:43;4.90;99.90
9941;DHT22;5009;50.656;7.188;2022-11-20T06:40:09;4.80;99.90
9941;DHT22;5009;50.656;7.188;2022-11-20T06:42:35;4.80;99.90
9941;DHT22;5009;50.656;7.188;2022-11-20T06:45:01;4.80;99.90
9941;DHT22;5009;50.656;7.188;2022-11-20T06:47:26;4.90;99.90
9941;DHT22;5009;50.656;7.188;2022-11-20T06:49:52;4.90;99.90
9941;DHT22;5009;50.656;7.188;2022-11-20T06:52:17;4.90;99.90
9941;DHT22;5009;50.656;7.188;2022-11-20T06:54:43;4.90;99.90
9941;DHT22;5009;50.656;7.188;2022-11-20T06:57:08;4.90;99.90
9941;DHT22;5009;50.656;7.188;2022-11-20T06:59:34;4.90;99.90
9941;DHT22;5009;50.656;7.188;2022-11-20T07:01:59;5.00;99.90
9941;DHT22;5009;50.656;7.188;2022-11-20T07:04:25;5.00;99.90
9941;DHT22;5009;50.656;7.188;2022-11-20T07:06:50;5.00;99.90
9941;DHT22;5009;50.656;7.188;2022-11-20T07:09:16;5.00;99.90
9941;DHT22;5009;50.656;7.188;2022-11-20T07:11:42;5.00;99.90
9941;DHT22;5009;50.656;7.188;2022-11-20T07:14:08;5.10;99.90
9941;DHT22;5009;50.656;7.188;2022-11-20T07:16:33;5.10;99.90
9941;DHT22;5009;50.656;7.188;2022-11-20T07:18:59;5.10;99.90
9941;DHT22;5009;50.656;7.188;2022-11-20T07:21:25;5.10;99.90
9941;DHT22;5009;50.656;7.188;2022-11-20T07:23:50;5.10;99.90
9941;DHT22;5009;50.656;7.188;2022-11-20T07:26:16;5.10;99.90
9941;DHT22;5009;50.656;7.188;2022-11-20T07:28:44;5.10;99.90
9941;DHT22;5009;50.656;7.188;2022-11-20T07:31:10;5.20;99.90
9941;DHT22;5009;50.656;7.188;2022-11-20T07:33:37;5.20;99.90
9941;DHT22;5009;50.656;7.188;2022-11-20T07:36:03;5.20;99.90
9941;DHT22;5009;50.656;7.188;2022-11-20T07:38:29;5.30;99.90
9941;DHT22;5009;50.656;7.188;2022-11-20T07:40:55;5.30;99.90
9941;DHT22;5009;50.656;7.188;2022-11-20T07:43:23;5.30;99.90
9941;DHT22;5009;50.656;7.188;2022-11-20T07:45:48;5.30;99.90
9941;DHT22;5009;50.656;7.188;2022-11-20T07:48:14;5.20;99.90
9941;DHT22;5009;50.656;7.188;2022-11-20T07:50:40;5.30;99.90
9941;DHT22;5009;50.656;7.188;2022-11-20T07:53:05;5.30;99.90
9941;DHT22;5009;50.656;7.188;2022-11-20T07:55:31;5.40;99.90
9941;DHT22;5009;50.656;7.188;2022-11-20T07:57:57;5.40;99.90
9941;DHT22;5009;50.656;7.188;2022-11-20T08:00:24;5.30;99.90
9941;DHT22;5009;50.656;7.188;2022-11-20T08:02:50;5.40;99.90
9941;DHT22;5009;50.656;7.188;2022-11-20T08:05:15;5.40;99.90
9941;DHT22;5009;50.656;7.188;2022-11-20T08:07:42;5.40;99.90
9941;DHT22;5009;50.656;7.188;2022-11-20T08:10:10;5.40;99.90
9941;DHT22;5009;50.656;7.188;2022-11-20T08:12:44;5.50;99.90
9941;DHT22;5009;50.656;7.188;2022-11-20T08:15:29;5.50;99.90
9941;DHT22;5009;50.656;7.188;2022-11-20T08:18:02;5.50;99.90
9941;DHT22;5009;50.656;7.188;2022-11-20T08:20:28;5.60;99.90
9941;DHT22;5009;50.656;7.188;2022-11-20T08:22:58;5.60;99.90
9941;DHT22;5009;50.656;7.188;2022-11-20T08:25:25;5.60;99.90
9941;DHT22;5009;50.656;7.188;2022-11-20T08:27:50;5.70;99.90
9941;DHT22;5009;50.656;7.188;2022-11-20T08:30:16;5.70;99.90
9941;DHT22;5009;50.656;7.188;2022-11-20T08:32:42;5.70;99.90
9941;DHT22;5009;50.656;7.188;2022-11-20T08:35:08;5.70;99.90
9941;DHT22;5009;50.656;7.188;2022-11-20T08:37:33;5.80;99.90
9941;DHT22;5009;50.656;7.188;2022-11-20T08:39:59;5.70;99.90
9941;DHT22;5009;50.656;7.188;2022-11-20T08:42:24;5.70;99.90
9941;DHT22;5009;50.656;7.188;2022-11-20T08:44:50;5.70;99.90
9941;DHT22;5009;50.656;7.188;2022-11-20T08:47:15;5.60;99.90
9941;DHT22;5009;50.656;7.188;2022-11-20T08:49:41;5.70;99.90
9941;DHT22;5009;50.656;7.188;2022-11-20T08:52:06;5.70;99.90
9941;DHT22;5009;50.656;7.188;2022-11-20T08:54:32;5.80;99.90
9941;DHT22;5009;50.656;7.188;2022-11-20T08:56:58;5.80;99.90
9941;DHT22;5009;50.656;7.188;2022-11-20T08:59:23;5.90;99.90
9941;DHT22;5009;50.656;7.188;2022-11-20T09:01:49;6.00;99.90
9941;DHT22;5009;50.656;7.188;2022-11-20T09:04:15;5.90;99.90
9941;DHT22;5009;50.656;7.188;2022-11-20T09:06:40;6.00;99.90
9941;DHT22;5009;50.656;7.188;2022-11-20T09:09:06;6.00;99.90
9941;DHT22;5009;50.656;7.188;2022-11-20T09:11:32;6.10;99.90
9941;DHT22;5009;50.656;7.188;2022-11-20T09:13:58;6.10;99.90
9941;DHT22;5009;50.656;7.188;2022-11-20T09:16:23;6.00;99.90
9941;DHT22;5009;50.656;7.188;2022-11-20T09:18:50;6.00;99.90
9941;DHT22;5009;50.656;7.188;2022-11-20T09:21:16;6.00;99.90
9941;DHT22;5009;50.656;7.188;2022-11-20T09:23:42;6.10;99.90
9941;DHT22;5009;50.656;7.188;2022-11-20T09:26:12;6.10;99.90
9941;DHT22;5009;50.656;7.188;2022-11-20T09:28:38;6.20;99.90
9941;DHT22;5009;50.656;7.188;2022-11-20T09:31:20;6.20;99.90
9941;DHT22;5009;50.656;7.188;2022-11-20T09:33:47;6.30;99.90
9941;DHT22;5009;50.656;7.188;2022-11-20T09:36:12;6.30;99.90
9941;DHT22;5009;50.656;7.188;2022-11-20T09:38:38;6.30;99.90
9941;DHT22;5009;50.656;7.188;2022-11-20T09:41:06;6.30;99.90
9941;DHT22;5009;50.656;7.188;2022-11-20T09:49:50;6.40;99.90
9941;DHT22;5009;50.656;7.188;2022-11-20T09:52:31;6.30;99.90
9941;DHT22;5009;50.656;7.188;2022-11-20T09:54:58;6.30;99.90
9941;DHT22;5009;50.656;7.188;2022-11-20T09:57:36;6.40;99.90
9941;DHT22;5009;50.656;7.188;2022-11-20T10:00:04;6.60;99.90
9941;DHT22;5009;50.656;7.188;2022-11-20T10:05:13;6.70;99.90
9941;DHT22;5009;50.656;7.188;2022-11-20T10:10:49;6.70;99.90
9941;DHT22;5009;50.656;7.188;2022-11-20T10:13:37;6.80;99.90
9941;DHT22;5009;50.656;7.188;2022-11-20T10:26:34;6.60;99.90
9941;DHT22;5009;50.656;7.188;2022-11-20T10:31:47;6.50;99.90
9941;DHT22;5009;50.656;7.188;2022-11-20T10:34:33;6.50;99.90
9941;DHT22;5009;50.656;7.188;2022-11-20T10:37:02;6.50;99.90
9941;DHT22;5009;50.656;7.188;2022-11-20T10:39:36;6.50;99.90
9941;DHT22;5009;50.656;7.188;2022-11-20T10:42:11;6.40;99.90
9941;DHT22;5009;50.656;7.188;2022-11-20T10:44:43;6.30;99.90
9941;DHT22;5009;50.656;7.188;2022-11-20T10:47:30;6.40;99.90
9941;DHT22;5009;50.656;7.188;2022-11-20T10:50:03;6.40;99.90
9941;DHT22;5009;50.656;7.188;2022-11-20T10:57:46;6.40;99.90
9941;DHT22;5009;50.656;7.188;2022-11-20T11:00:18;6.30;99.90
9941;DHT22;5009;50.656;7.188;2022-11-20T11:02:48;6.30;99.90
9941;DHT22;5009;50.656;7.188;2022-11-20T11:07:49;6.50;99.90
9941;DHT22;5009;50.656;7.188;2022-11-20T11:10:18;6.40;99.90
9941;DHT22;5009;50.656;7.188;2022-11-20T11:12:46;6.40;99.90
9941;DHT22;5009;50.656;7.188;2022-11-20T11:15:28;6.40;99.90
9941;DHT22;5009;50.656;7.188;2022-11-20T11:17:55;6.50;99.90
9941;DHT22;5009;50.656;7.188;2022-11-20T11:20:25;6.50;99.90
9941;DHT22;5009;50.656;7.188;2022-11-20T11:22:54;6.50;99.90
9941;DHT22;5009;50.656;7.188;2022-11-20T11:25:32;6.60;99.90
9941;DHT22;5009;50.656;7.188;2022-11-20T11:28:22;6.70;99.90
9941;DHT22;5009;50.656;7.188;2022-11-20T11:30:50;6.80;99.90
9941;DHT22;5009;50.656;7.188;2022-11-20T11:33:24;6.70;99.90
9941;DHT22;5009;50.656;7.188;2022-11-20T11:35:53;6.70;99.90
9941;DHT22;5009;50.656;7.188;2022-11-20T11:38:37;6.70;99.90
9941;DHT22;5009;50.656;7.188;2022-11-20T11:41:05;6.80;99.90
9941;DHT22;5009;50.656;7.188;2022-11-20T11:43:33;6.80;99.90
9941;DHT22;5009;50.656;7.188;2022-11-20T11:46:33;6.80;99.90
9941;DHT22;5009;50.656;7.188;2022-11-20T11:54:26;6.90;99.90
9941;DHT22;5009;50.656;7.188;2022-11-20T11:56:53;6.90;99.90
9941;DHT22;5009;50.656;7.188;2022-11-20T11:59:41;6.90;99.90
9941;DHT22;5009;50.656;7.188;2022-11-20T12:02:32;6.80;99.90
9941;DHT22;5009;50.656;7.188;2022-11-20T12:05:26;6.90;99.90
9941;DHT22;5009;50.656;7.188;2022-11-20T12:07:55;6.80;99.90
9941;DHT22;5009;50.656;7.188;2022-11-20T12:13:18;6.80;99.90
9941;DHT22;5009;50.656;7.188;2022-11-20T12:15:46;7.00;99.90
9941;DHT22;5009;50.656;7.188;2022-11-20T12:18:16;6.90;99.90
9941;DHT22;5009;50.656;7.188;2022-11-20T12:23:48;6.90;99.90
9941;DHT22;5009;50.656;7.188;2022-11-20T12:37:47;7.00;99.90
9941;DHT22;5009;50.656;7.188;2022-11-20T12:40:27;7.00;99.90
9941;DHT22;5009;50.656;7.188;2022-11-20T12:43:11;7.00;99.90
9941;DHT22;5009;50.656;7.188;2022-11-20T12:48:33;7.10;99.90
9941;DHT22;5009;50.656;7.188;2022-11-20T12:51:32;7.10;99.90
9941;DHT22;5009;50.656;7.188;2022-11-20T13:08:35;7.30;99.90
9941;DHT22;5009;50.656;7.188;2022-11-20T13:11:13;7.30;99.90
9941;DHT22;5009;50.656;7.188;2022-11-20T13:13:48;7.30;99.90
9941;DHT22;5009;50.656;7.188;2022-11-20T13:19:13;7.20;99.90
9941;DHT22;5009;50.656;7.188;2022-11-20T13:21:42;7.20;99.90
9941;DHT22;5009;50.656;7.188;2022-11-20T13:24:32;7.20;99.90
9941;DHT22;5009;50.656;7.188;2022-11-20T13:29:42;7.20;99.90
9941;DHT22;5009;50.656;7.188;2022-11-20T13:32:18;7.10;99.90
9941;DHT22;5009;50.656;7.188;2022-11-20T13:35:01;7.10;99.90
9941;DHT22;5009;50.656;7.188;2022-11-20T13:37:37;7.10;99.90
9941;DHT22;5009;50.656;7.188;2022-11-20T13:43:01;7.10;99.90
9941;DHT22;5009;50.656;7.188;2022-11-20T13:45:30;7.10;99.90
9941;DHT22;5009;50.656;7.188;2022-11-20T13:47:58;7.10;99.90
9941;DHT22;5009;50.656;7.188;2022-11-20T14:01:33;7.10;99.90
9941;DHT22;5009;50.656;7.188;2022-11-20T14:04:06;7.10;99.90
9941;DHT22;5009;50.656;7.188;2022-11-20T14:06:40;7.10;99.90
9941;DHT22;5009;50.656;7.188;2022-11-20T14:09:12;7.10;99.90
9941;DHT22;5009;50.656;7.188;2022-11-20T14:11:46;7.20;99.90
9941;DHT22;5009;50.656;7.188;2022-11-20T14:14:20;7.20;99.90
9941;DHT22;5009;50.656;7.188;2022-11-20T14:16:47;7.30;99.90
9941;DHT22;5009;50.656;7.188;2022-11-20T14:19:28;7.30;99.90
9941;DHT22;5009;50.656;7.188;2022-11-20T14:24:35;7.20;99.90
9941;DHT22;5009;50.656;7.188;2022-11-20T14:27:00;7.30;99.90
9941;DHT22;5009;50.656;7.188;2022-11-20T14:29:29;7.40;99.90
9941;DHT22;5009;50.656;7.188;2022-11-20T14:31:58;7.40;99.90
9941;DHT22;5009;50.656;7.188;2022-11-20T14:34:32;7.50;99.90
9941;DHT22;5009;50.656;7.188;2022-11-20T14:37:01;7.50;99.90
9941;DHT22;5009;50.656;7.188;2022-11-20T14:39:35;7.50;99.90
9941;DHT22;5009;50.656;7.188;2022-11-20T14:42:01;7.50;99.90
9941;DHT22;5009;50.656;7.188;2022-11-20T14:44:30;7.60;99.90
9941;DHT22;5009;50.656;7.188;2022-11-20T14:46:57;7.60;99.90
9941;DHT22;5009;50.656;7.188;2022-11-20T14:49:24;7.60;99.90
9941;DHT22;5009;50.656;7.188;2022-11-20T14:51:59;7.60;99.90
9941;DHT22;5009;50.656;7.188;2022-11-20T14:54:25;7.60;99.90
9941;DHT22;5009;50.656;7.188;2022-11-20T14:56:59;7.50;99.90
9941;DHT22;5009;50.656;7.188;2022-11-20T14:59:27;7.40;99.90
9941;DHT22;5009;50.656;7.188;2022-11-20T15:02:00;7.40;99.90
9941;DHT22;5009;50.656;7.188;2022-11-20T15:04:26;7.40;99.90
9941;DHT22;5009;50.656;7.188;2022-11-20T15:06:54;7.50;99.90
9941;DHT22;5009;50.656;7.188;2022-11-20T15:09:21;7.50;99.90
9941;DHT22;5009;50.656;7.188;2022-11-20T15:11:59;7.50;99.90
9941;DHT22;5009;50.656;7.188;2022-11-20T15:14:26;7.50;99.90
9941;DHT22;5009;50.656;7.188;2022-11-20T15:16:53;7.50;99.90
9941;DHT22;5009;50.656;7.188;2022-11-20T15:19:21;7.50;99.90
9941;DHT22;5009;50.656;7.188;2022-11-20T15:21:47;7.50;99.90
9941;DHT22;5009;50.656;7.188;2022-11-20T15:24:12;7.50;99.90
9941;DHT22;5009;50.656;7.188;2022-11-20T15:26:38;7.50;99.90
9941;DHT22;5009;50.656;7.188;2022-11-20T15:29:12;7.50;99.90
9941;DHT22;5009;50.656;7.188;2022-11-20T15:31:38;7.60;99.90
9941;DHT22;5009;50.656;7.188;2022-11-20T15:34:14;7.60;99.90
9941;DHT22;5009;50.656;7.188;2022-11-20T15:36:40;7.60;99.90
9941;DHT22;5009;50.656;7.188;2022-11-20T15:39:07;7.60;99.90
9941;DHT22;5009;50.656;7.188;2022-11-20T15:41:34;7.50;99.90
9941;DHT22;5009;50.656;7.188;2022-11-20T15:43:59;7.50;99.90
9941;DHT22;5009;50.656;7.188;2022-11-20T15:46:30;7.40;99.90
9941;DHT22;5009;50.656;7.188;2022-11-20T15:48:59;7.40;99.90
9941;DHT22;5009;50.656;7.188;2022-11-20T15:51:37;7.30;99.90
9941;DHT22;5009;50.656;7.188;2022-11-20T15:54:22;7.20;99.90
9941;DHT22;5009;50.656;7.188;2022-11-20T15:56:51;7.10;99.90
9941;DHT22;5009;50.656;7.188;2022-11-20T15:59:19;7.10;99.90
9941;DHT22;5009;50.656;7.188;2022-11-20T16:01:45;7.10;99.90
9941;DHT22;5009;50.656;7.188;2022-11-20T16:04:15;7.10;99.90
9941;DHT22;5009;50.656;7.188;2022-11-20T16:06:41;7.00;99.90
9941;DHT22;5009;50.656;7.188;2022-11-20T16:09:07;7.00;99.90
9941;DHT22;5009;50.656;7.188;2022-11-20T16:11:33;7.00;99.90
9941;DHT22;5009;50.656;7.188;2022-11-20T16:14:02;6.90;99.90
9941;DHT22;5009;50.656;7.188;2022-11-20T16:16:46;6.90;99.90
9941;DHT22;5009;50.656;7.188;2022-11-20T16:19:13;6.90;99.90
9941;DHT22;5009;50.656;7.188;2022-11-20T16:21:39;6.90;99.90
9941;DHT22;5009;50.656;7.188;2022-11-20T16:24:08;6.90;99.90
9941;DHT22;5009;50.656;7.188;2022-11-20T16:26:35;6.90;99.90
9941;DHT22;5009;50.656;7.188;2022-11-20T16:29:01;6.90;99.90
9941;DHT22;5009;50.656;7.188;2022-11-20T16:31:28;6.90;99.90
9941;DHT22;5009;50.656;7.188;2022-11-20T16:33:59;6.90;99.90
9941;DHT22;5009;50.656;7.188;2022-11-20T16:36:26;6.90;99.90
9941;DHT22;5009;50.656;7.188;2022-11-20T16:39:00;6.90;99.90
9941;DHT22;5009;50.656;7.188;2022-11-20T16:41:27;6.90;99.90
9941;DHT22;5009;50.656;7.188;2022-11-20T16:43:55;7.00;99.90
9941;DHT22;5009;50.656;7.188;2022-11-20T16:46:26;7.00;99.90
9941;DHT22;5009;50.656;7.188;2022-11-20T16:48:57;7.10;99.90
9941;DHT22;5009;50.656;7.188;2022-11-20T16:51:23;7.00;99.90
9941;DHT22;5009;50.656;7.188;2022-11-20T16:53:49;7.10;99.90
9941;DHT22;5009;50.656;7.188;2022-11-20T16:56:17;7.10;99.90
9941;DHT22;5009;50.656;7.188;2022-11-20T16:58:44;7.10;99.90
9941;DHT22;5009;50.656;7.188;2022-11-20T17:01:12;7.10;99.90
9941;DHT22;5009;50.656;7.188;2022-11-20T17:03:39;7.10;99.90
9941;DHT22;5009;50.656;7.188;2022-11-20T17:06:12;7.10;99.90
9941;DHT22;5009;50.656;7.188;2022-11-20T17:08:37;7.00;99.90
9941;DHT22;5009;50.656;7.188;2022-11-20T17:11:07;7.10;99.90
9941;DHT22;5009;50.656;7.188;2022-11-20T17:13:34;7.00;99.90
9941;DHT22;5009;50.656;7.188;2022-11-20T17:16:09;7.00;99.90
9941;DHT22;5009;50.656;7.188;2022-11-20T17:18:35;7.00;99.90
9941;DHT22;5009;50.656;7.188;2022-11-20T17:21:01;7.10;99.90
9941;DHT22;5009;50.656;7.188;2022-11-20T17:23:34;7.10;99.90
9941;DHT22;5009;50.656;7.188;2022-11-20T17:26:08;7.10;99.90
9941;DHT22;5009;50.656;7.188;2022-11-20T17:28:35;7.10;99.90
9941;DHT22;5009;50.656;7.188;2022-11-20T17:31:04;7.00;99.90
9941;DHT22;5009;50.656;7.188;2022-11-20T17:33:30;7.00;99.90
9941;DHT22;5009;50.656;7.188;2022-11-20T17:35:56;7.00;99.90
9941;DHT22;5009;50.656;7.188;2022-11-20T17:38:22;7.00;99.90
9941;DHT22;5009;50.656;7.188;2022-11-20T17:40:47;6.90;99.90
9941;DHT22;5009;50.656;7.188;2022-11-20T17:43:13;6.90;99.90
9941;DHT22;5009;50.656;7.188;2022-11-20T17:45:38;7.00;99.90
9941;DHT22;5009;50.656;7.188;2022-11-20T17:48:04;7.00;99.90
9941;DHT22;5009;50.656;7.188;2022-11-20T17:50:30;7.00;99.90
9941;DHT22;5009;50.656;7.188;2022-11-20T17:52:55;7.00;99.90
9941;DHT22;5009;50.656;7.188;2022-11-20T17:55:21;7.00;99.90
9941;DHT22;5009;50.656;7.188;2022-11-20T17:57:47;7.00;99.90
9941;DHT22;5009;50.656;7.188;2022-11-20T18:00:20;7.00;99.90
9941;DHT22;5009;50.656;7.188;2022-11-20T18:02:47;7.00;99.90
9941;DHT22;5009;50.656;7.188;2022-11-20T18:05:12;7.00;99.90
9941;DHT22;5009;50.656;7.188;2022-11-20T18:07:38;7.10;99.90
9941;DHT22;5009;50.656;7.188;2022-11-20T18:10:05;7.10;99.90
9941;DHT22;5009;50.656;7.188;2022-11-20T18:12:31;7.10;99.90
9941;DHT22;5009;50.656;7.188;2022-11-20T18:14:56;7.10;99.90
9941;DHT22;5009;50.656;7.188;2022-11-20T18:17:22;7.10;99.90
9941;DHT22;5009;50.656;7.188;2022-11-20T18:19:48;7.10;99.90
9941;DHT22;5009;50.656;7.188;2022-11-20T18:22:16;7.10;99.90
9941;DHT22;5009;50.656;7.188;2022-11-20T18:24:42;7.10;99.90
9941;DHT22;5009;50.656;7.188;2022-11-20T18:27:13;7.20;99.90
9941;DHT22;5009;50.656;7.188;2022-11-20T18:29:39;7.30;99.90
9941;DHT22;5009;50.656;7.188;2022-11-20T18:32:05;7.30;99.90
9941;DHT22;5009;50.656;7.188;2022-11-20T18:34:31;7.30;99.90
9941;DHT22;5009;50.656;7.188;2022-11-20T18:36:56;7.30;99.90
9941;DHT22;5009;50.656;7.188;2022-11-20T18:39:22;7.30;99.90
9941;DHT22;5009;50.656;7.188;2022-11-20T18:41:48;7.40;99.90
9941;DHT22;5009;50.656;7.188;2022-11-20T18:44:32;7.40;99.90
9941;DHT22;5009;50.656;7.188;2022-11-20T18:47:28;7.50;99.90
9941;DHT22;5009;50.656;7.188;2022-11-20T18:49:59;7.50;99.90
9941;DHT22;5009;50.656;7.188;2022-11-20T18:52:33;7.50;99.90
9941;DHT22;5009;50.656;7.188;2022-11-20T18:55:00;7.60;99.90
9941;DHT22;5009;50.656;7.188;2022-11-20T18:57:27;7.60;99.90
9941;DHT22;5009;50.656;7.188;2022-11-20T18:59:54;7.60;99.90
9941;DHT22;5009;50.656;7.188;2022-11-20T19:02:21;7.60;99.90
9941;DHT22;5009;50.656;7.188;2022-11-20T19:04:46;7.60;99.90
9941;DHT22;5009;50.656;7.188;2022-11-20T19:07:12;7.70;99.90
9941;DHT22;5009;50.656;7.188;2022-11-20T19:09:43;7.70;99.90
9941;DHT22;5009;50.656;7.188;2022-11-20T19:12:10;7.70;99.90
9941;DHT22;5009;50.656;7.188;2022-11-20T19:14:36;7.70;99.90
9941;DHT22;5009;50.656;7.188;2022-11-20T19:17:02;7.70;99.90
9941;DHT22;5009;50.656;7.188;2022-11-20T19:19:28;7.80;99.90
9941;DHT22;5009;50.656;7.188;2022-11-20T19:21:54;7.70;99.90
9941;DHT22;5009;50.656;7.188;2022-11-20T19:24:19;7.70;99.90
9941;DHT22;5009;50.656;7.188;2022-11-20T19:26:45;7.70;99.90
9941;DHT22;5009;50.656;7.188;2022-11-20T19:29:13;7.70;99.90
9941;DHT22;5009;50.656;7.188;2022-11-20T19:31:40;7.70;99.90
9941;DHT22;5009;50.656;7.188;2022-11-20T19:34:06;7.60;99.90
9941;DHT22;5009;50.656;7.188;2022-11-20T19:36:34;7.60;99.90
9941;DHT22;5009;50.656;7.188;2022-11-20T19:39:00;7.60;99.90
9941;DHT22;5009;50.656;7.188;2022-11-20T19:41:30;7.70;99.90
9941;DHT22;5009;50.656;7.188;2022-11-20T19:44:03;7.70;99.90
9941;DHT22;5009;50.656;7.188;2022-11-20T19:46:30;7.70;99.90
9941;DHT22;5009;50.656;7.188;2022-11-20T19:48:57;7.60;99.90
9941;DHT22;5009;50.656;7.188;2022-11-20T19:51:27;7.60;99.90
9941;DHT22;5009;50.656;7.188;2022-11-20T19:53:56;7.60;99.90
9941;DHT22;5009;50.656;7.188;2022-11-20T19:56:23;7.60;99.90
9941;DHT22;5009;50.656;7.188;2022-11-20T19:58:49;7.50;99.90
9941;DHT22;5009;50.656;7.188;2022-11-20T20:01:19;7.50;99.90
9941;DHT22;5009;50.656;7.188;2022-11-20T20:03:46;7.50;99.90
9941;DHT22;5009;50.656;7.188;2022-11-20T20:06:24;7.50;99.90
9941;DHT22;5009;50.656;7.188;2022-11-20T20:08:58;7.50;99.90
9941;DHT22;5009;50.656;7.188;2022-11-20T20:11:25;7.50;99.90
9941;DHT22;5009;50.656;7.188;2022-11-20T20:13:52;7.50;99.90
9941;DHT22;5009;50.656;7.188;2022-11-20T20:16:21;7.50;99.90
9941;DHT22;5009;50.656;7.188;2022-11-20T20:18:47;7.50;99.90
9941;DHT22;5009;50.656;7.188;2022-11-20T20:21:14;7.50;99.90
9941;DHT22;5009;50.656;7.188;2022-11-20T20:23:41;7.60;99.90
9941;DHT22;5009;50.656;7.188;2022-11-20T20:26:09;7.60;99.90
9941;DHT22;5009;50.656;7.188;2022-11-20T20:28:35;7.70;99.90
9941;DHT22;5009;50.656;7.188;2022-11-20T20:31:10;7.70;99.90
9941;DHT22;5009;50.656;7.188;2022-11-20T20:33:37;7.70;99.90
9941;DHT22;5009;50.656;7.188;2022-11-20T20:36:04;7.80;99.90
9941;DHT22;5009;50.656;7.188;2022-11-20T20:38:29;7.80;99.90
9941;DHT22;5009;50.656;7.188;2022-11-20T20:40:55;7.70;99.90
9941;DHT22;5009;50.656;7.188;2022-11-20T20:43:21;7.80;99.90
9941;DHT22;5009;50.656;7.188;2022-11-20T20:45:47;7.80;99.90
9941;DHT22;5009;50.656;7.188;2022-11-20T20:48:15;7.90;99.90
9941;DHT22;5009;50.656;7.188;2022-11-20T20:50:41;7.90;99.90
9941;DHT22;5009;50.656;7.188;2022-11-20T20:53:08;7.90;99.90
9941;DHT22;5009;50.656;7.188;2022-11-20T20:55:34;8.00;99.90
9941;DHT22;5009;50.656;7.188;2022-11-20T20:58:00;8.00;99.90
9941;DHT22;5009;50.656;7.188;2022-11-20T21:00:25;8.00;99.90
9941;DHT22;5009;50.656;7.188;2022-11-20T21:02:51;8.00;99.90
9941;DHT22;5009;50.656;7.188;2022-11-20T21:05:16;8.00;99.90
9941;DHT22;5009;50.656;7.188;2022-11-20T21:07:42;8.10;99.90
9941;DHT22;5009;50.656;7.188;2022-11-20T21:10:26;8.10;99.90
9941;DHT22;5009;50.656;7.188;2022-11-20T21:12:52;8.10;99.90
9941;DHT22;5009;50.656;7.188;2022-11-20T21:15:18;8.10;99.90
9941;DHT22;5009;50.656;7.188;2022-11-20T21:17:43;8.10;99.90
9941;DHT22;5009;50.656;7.188;2022-11-20T21:20:12;8.10;99.90